Wabasso, MN (56293)

10:20 PM CST on February 23, 2017 (GMT -0600)
KMNREDW03 | | Change Station
Active Advisory: Winter Weather Advisory

Elev 1030 ft 44.54 °N, 95.11 °W | Updated 37 seconds ago

Snow
Snow
29.6 °F
Feels Like 26 °F
N
3.8
Wind Variable Wind from NE

Today
High -- | Low -- °F
--% Chance of Precip.
Yesterday
High -- | Low -- °F
Precip. -- in
Pressure 29.98 in
Visibility 10.0 miles
Clouds Mostly Cloudy 1900 ft
Overcast 7500 ft
Windchill 26 °F
Dew Point 24 °F
Humidity 79%
Rainfall 0.00 in
Snow Depth Not available.
7:07 AM 6:01 PM
Waning Crescent, 7% visible
METAR KRWF 240353Z AUTO 04007KT 010V070 10SM BKN019 OVC075 M01/M05 A2994 RMK AO2 SLP151 T10061050
Pressure 29.98 in
Visibility 10.0 miles
Clouds Mostly Cloudy 1900 ft
Overcast 7500 ft
Windchill 26 °F
Dew Point 24 °F
Humidity 79%
Rainfall 0.00 in
Snow Depth Not available.
7:07 AM 6:01 PM
Waning Crescent, 7% visible
METAR KRWF 240353Z AUTO 04007KT 010V070 10SM BKN019 OVC075 M01/M05 A2994 RMK AO2 SLP151 T10061050

Get Your Daily Forecast Email!

Thanks for signing up!

Be on the lookout for a verification email in your inbox.

You'll start receiving the daily forecast at 8 AM.

×

10-Day Weather Forecast

Almanac

Astronomy

Feb. 23, 2017 Rise Set
Actual Time
Civil Twilight
Nautical Twilight
Astronomical Twilight
Moon
Length of Visible Light
Length of Day
Tomorrow will be .
, % of the Moon is Illuminated

Today's Extremes

State Highs State Lows

Community

WunderPhotos

Upload Photos

1,962,540 photos uploaded!

WunderBlog® & News

Nearby

Air Quality

  Air Quality AQ Index Pollutant
Not available.

Snow Depth

Station Depth Elevation

Earthquake Activity

City Distance Mag. Time & Date
Minimum magnitude displayed is 2.5.

Coastal Water Temperatures

Place Temperature

Stations

Nearby Weather Stations

Station Location Temp. Windchill Dew Point Humidity Wind Precip. Elev Updated Type
                   

Watches & Warnings

Winter Weather Advisory
Issued: 8:34 PM CST Feb. 23, 2017 – National Weather Service

... Winter Weather Advisory now in effect until noon CST Friday...

* timing... snow will spread into the area late this evening or
early overnight.

* Snow accumulations... up to 3 or 4 inches, mainly across the
southern portion of the County.

* Winds... north 15 to 25 mph with gusts to 35 mph may result in
areas of blowing and drifting snow.

Precautionary/preparedness actions...

A Winter Weather Advisory for snow and blowing snow means that
visibilities will be limited due to a combination of falling and
blowing snow. Use caution when traveling... especially in open
areas.



Borghoff